Time;durP1;ratioP1;P1;durP2;ratioP2;P2;SDS_P1;SDS_P2;PMS_P1;PMS_P2;Temp;Humidity;BMP_temperature;BMP_pressure;BME280_temperature;BME280_humidity;BME280_pressure;Samples;Min_cycle;Max_cycle;Signal;HPM_P1;HPM_P2
2021/08/19 00:01:22;;;;;;;3.63;2.93;;;17.90;99.90;;;;;;5010702;28;20540;-73
2021/08/19 00:04:07;;;;;;;6.00;2.80;;;18.00;99.90;;;;;;5005061;28;20975;-73
2021/08/19 00:06:53;;;;;;;3.60;3.00;;;18.00;99.90;;;;;;5003762;28;20505;-73
2021/08/19 00:09:39;;;;;;;4.07;2.63;;;18.00;99.90;;;;;;5014373;28;21007;-73
2021/08/19 00:12:25;;;;;;;3.50;2.70;;;18.00;99.90;;;;;;5010856;28;20450;-73
2021/08/19 00:15:13;;;;;;;9.33;3.37;;;17.90;99.90;;;;;;5004937;28;20461;-73
2021/08/19 00:17:58;;;;;;;3.30;2.80;;;17.80;99.90;;;;;;5011837;28;20414;-73
2021/08/19 00:20:44;;;;;;;4.00;2.80;;;17.80;99.90;;;;;;5010753;28;21011;-73
2021/08/19 00:23:30;;;;;;;4.53;2.67;;;17.80;99.90;;;;;;5010993;28;20474;-73
2021/08/19 00:26:15;;;;;;;5.67;3.07;;;17.80;99.90;;;;;;5006068;28;20947;-73
2021/08/19 00:29:01;;;;;;;3.57;2.50;;;17.80;99.90;;;;;;5010964;28;20446;-73
2021/08/19 00:31:49;;;;;;;4.10;2.97;;;17.80;99.90;;;;;;5011228;28;20397;-73
2021/08/19 00:34:35;;;;;;;4.03;2.73;;;17.80;99.90;;;;;;5010132;28;20451;-73
2021/08/19 00:37:21;;;;;;;5.80;3.10;;;17.80;99.90;;;;;;5010616;28;20454;-73
2021/08/19 00:40:07;;;;;;;6.27;3.70;;;17.80;99.90;;;;;;5010177;28;20543;-73
2021/08/19 00:42:53;;;;;;;6.17;3.43;;;17.80;99.90;;;;;;5010325;28;20496;-73
2021/08/19 00:45:39;;;;;;;4.87;3.27;;;17.80;99.90;;;;;;5011005;28;20418;-73
2021/08/19 00:48:26;;;;;;;4.40;2.77;;;17.80;99.90;;;;;;5010786;28;20480;-73
2021/08/19 00:51:11;;;;;;;5.47;2.90;;;17.90;99.90;;;;;;4991851;28;20482;-73
2021/08/19 00:53:57;;;;;;;8.07;3.13;;;17.80;99.90;;;;;;5009565;28;20441;-73
2021/08/19 00:56:44;;;;;;;4.90;3.20;;;17.90;99.90;;;;;;5010141;28;20511;-73
2021/08/19 00:59:31;;;;;;;3.97;2.80;;;17.90;99.90;;;;;;5010510;28;20848;-73
2021/08/19 01:02:17;;;;;;;6.80;3.23;;;17.90;99.90;;;;;;5011294;28;20470;-73
2021/08/19 01:05:06;;;;;;;6.93;3.27;;;17.90;99.90;;;;;;5010976;28;20448;-73
2021/08/19 01:07:51;;;;;;;6.25;3.00;;;17.70;99.90;;;;;;5010166;28;20450;-73
2021/08/19 01:10:37;;;;;;;4.47;3.33;;;17.80;99.90;;;;;;5017306;28;20736;-73
2021/08/19 01:13:22;;;;;;;4.00;3.10;;;17.70;99.90;;;;;;5013052;28;20847;-73
2021/08/19 01:16:08;;;;;;;6.83;2.97;;;17.70;99.90;;;;;;5007449;28;20791;-74
2021/08/19 01:18:53;;;;;;;3.33;2.40;;;17.80;99.90;;;;;;5014766;28;20783;-73
2021/08/19 01:21:40;;;;;;;3.80;2.53;;;17.80;99.90;;;;;;5013859;28;20454;-73
2021/08/19 01:24:26;;;;;;;4.40;2.90;;;17.80;99.90;;;;;;5013527;28;20450;-73
2021/08/19 01:27:14;;;;;;;4.30;3.33;;;17.90;99.90;;;;;;5002569;28;20462;-73
2021/08/19 01:30:00;;;;;;;7.57;4.00;;;17.90;99.90;;;;;;5007615;28;20414;-73
2021/08/19 01:32:45;;;;;;;4.77;3.33;;;17.90;99.90;;;;;;5011982;28;20807;-73
2021/08/19 01:35:31;;;;;;;6.90;3.10;;;17.70;99.90;;;;;;5014130;28;20498;-73
2021/08/19 01:38:17;;;;;;;3.77;2.50;;;17.80;99.90;;;;;;5013433;28;20429;-73
2021/08/19 01:41:03;;;;;;;4.70;3.00;;;17.80;99.90;;;;;;5013858;28;20824;-73
2021/08/19 01:43:52;;;;;;;3.50;2.70;;;17.80;99.90;;;;;;5014159;28;20219;-73
2021/08/19 01:46:38;;;;;;;4.38;3.00;;;17.80;99.90;;;;;;5011903;28;20450;-73
2021/08/19 01:49:24;;;;;;;3.77;3.33;;;17.80;99.90;;;;;;5014535;28;20660;-73
2021/08/19 01:52:11;;;;;;;5.80;2.80;;;17.80;99.90;;;;;;5013342;28;20807;-74
2021/08/19 01:54:57;;;;;;;4.77;3.50;;;17.80;99.90;;;;;;5006110;28;20947;-73
2021/08/19 01:57:42;;;;;;;6.13;3.40;;;17.70;99.90;;;;;;5012103;28;20517;-74
2021/08/19 02:00:29;;;;;;;3.83;3.10;;;17.60;99.90;;;;;;5001971;28;20828;-73
2021/08/19 02:03:15;;;;;;;4.40;3.70;;;17.50;99.90;;;;;;5006716;28;20474;-73
2021/08/19 02:06:00;;;;;;;3.97;3.47;;;17.60;99.90;;;;;;5006010;28;20447;-74
2021/08/19 02:08:46;;;;;;;4.90;3.40;;;17.60;99.90;;;;;;5013738;28;20481;-73
2021/08/19 02:11:32;;;;;;;7.23;3.00;;;17.70;99.90;;;;;;5010272;28;20521;-73
2021/08/19 02:14:17;;;;;;;7.50;3.30;;;17.70;99.90;;;;;;5013602;28;20441;-73
2021/08/19 02:17:04;;;;;;;10.20;2.97;;;17.80;99.90;;;;;;5012836;28;20475;-73
2021/08/19 02:19:50;;;;;;;4.80;3.97;;;17.80;99.90;;;;;;5012513;28;20951;-73
2021/08/19 02:22:36;;;;;;;4.28;3.50;;;17.70;99.90;;;;;;5012435;28;20542;-73
2021/08/19 02:25:21;;;;;;;4.90;3.73;;;17.70;99.90;;;;;;5011487;28;20320;-74
2021/08/19 02:28:07;;;;;;;6.47;4.20;;;17.70;99.90;;;;;;5006528;28;20445;-74
2021/08/19 02:30:52;;;;;;;6.93;4.50;;;17.70;99.90;;;;;;5008946;28;20523;-74
2021/08/19 02:33:39;;;;;;;7.13;4.17;;;17.70;99.90;;;;;;5012835;28;20586;-73
2021/08/19 02:36:25;;;;;;;5.03;4.17;;;17.70;99.90;;;;;;5012971;28;20507;-73
2021/08/19 02:39:10;;;;;;;5.23;4.70;;;17.70;99.90;;;;;;5011371;28;20458;-73
2021/08/19 02:41:56;;;;;;;4.87;4.37;;;17.70;99.90;;;;;;5004598;28;20449;-73
2021/08/19 02:44:41;;;;;;;5.47;4.40;;;17.70;99.90;;;;;;5012768;28;20425;-73
2021/08/19 02:47:27;;;;;;;6.90;4.40;;;17.80;99.90;;;;;;5010735;28;20437;-74
2021/08/19 02:50:14;;;;;;;5.53;5.03;;;17.80;99.90;;;;;;5012955;28;20469;-73
2021/08/19 02:53:00;;;;;;;6.13;4.80;;;17.70;99.90;;;;;;5012213;28;20790;-73
2021/08/19 02:55:46;;;;;;;5.90;4.90;;;17.70;99.90;;;;;;5012800;28;20421;-73
2021/08/19 02:58:32;;;;;;;6.37;5.07;;;17.60;99.90;;;;;;5010421;28;20761;-74
2021/08/19 03:01:18;;;;;;;6.57;4.78;;;17.60;99.90;;;;;;5011229;28;20440;-73
2021/08/19 03:04:03;;;;;;;5.80;4.73;;;17.50;99.90;;;;;;5013080;28;20227;-73
2021/08/19 03:06:50;;;;;;;7.00;5.03;;;17.50;99.90;;;;;;5007138;28;20428;-73
2021/08/19 03:09:36;;;;;;;6.50;4.70;;;17.50;99.90;;;;;;5012464;28;20822;-73
2021/08/19 03:12:22;;;;;;;8.90;4.87;;;17.60;99.90;;;;;;5011675;28;20656;-73
2021/08/19 03:15:08;;;;;;;5.70;4.13;;;17.60;99.90;;;;;;5005944;28;20528;-74
2021/08/19 03:17:54;;;;;;;5.80;4.47;;;17.60;99.90;;;;;;5004818;28;20430;-73
2021/08/19 03:20:39;;;;;;;8.07;4.73;;;17.60;99.90;;;;;;5011810;28;20489;-73
2021/08/19 03:23:26;;;;;;;5.80;4.33;;;17.70;99.90;;;;;;5012852;28;20550;-74
2021/08/19 03:26:13;;;;;;;10.53;6.10;;;17.70;99.90;;;;;;5005877;28;20435;-73
2021/08/19 03:28:58;;;;;;;7.00;5.90;;;17.70;99.90;;;;;;5004416;28;20555;-73
2021/08/19 03:31:44;;;;;;;7.20;5.80;;;17.70;99.90;;;;;;5011422;28;20555;-73
2021/08/19 03:34:30;;;;;;;6.60;5.90;;;17.70;99.90;;;;;;5011144;28;20491;-74
2021/08/19 03:37:15;;;;;;;7.40;5.40;;;17.60;99.90;;;;;;5011445;28;20431;-74
2021/08/19 03:40:04;;;;;;;7.57;6.63;;;17.60;99.90;;;;;;5013925;28;20891;-74
2021/08/19 03:42:49;;;;;;;11.80;6.30;;;17.60;99.90;;;;;;5011462;28;20549;-74
2021/08/19 03:45:35;;;;;;;8.63;6.50;;;17.60;99.90;;;;;;5010045;28;20456;-73
2021/08/19 03:48:21;;;;;;;8.03;6.97;;;17.50;99.90;;;;;;5011824;28;20868;-74
2021/08/19 03:51:09;;;;;;;9.30;6.87;;;17.50;99.90;;;;;;5009184;28;20524;-73
2021/08/19 03:53:57;;;;;;;9.10;7.53;;;17.50;99.90;;;;;;4994917;28;20448;-74
2021/08/19 03:56:44;;;;;;;11.40;7.90;;;17.40;99.90;;;;;;5010857;28;20461;-74
2021/08/19 03:59:29;;;;;;;8.27;7.33;;;17.30;99.90;;;;;;5010242;28;20469;-73
2021/08/19 04:02:15;;;;;;;10.80;8.73;;;17.40;99.90;;;;;;5010109;28;20488;-73
2021/08/19 04:05:00;;;;;;;10.30;8.43;;;17.20;99.90;;;;;;5004414;28;20910;-74
2021/08/19 04:07:46;;;;;;;10.80;7.97;;;17.20;99.90;;;;;;5010929;28;20960;-74
2021/08/19 04:10:32;;;;;;;9.40;8.13;;;17.30;99.90;;;;;;5010821;28;20975;-74
2021/08/19 04:13:19;;;;;;;9.60;8.63;;;17.30;99.90;;;;;;5006150;28;20544;-73
2021/08/19 04:16:05;;;;;;;11.48;8.60;;;17.30;99.90;;;;;;4996064;28;20517;-73
2021/08/19 04:18:51;;;;;;;11.07;7.83;;;17.40;99.90;;;;;;5009992;28;20207;-74
2021/08/19 04:21:37;;;;;;;11.50;8.37;;;17.40;99.90;;;;;;5011540;28;20422;-73
2021/08/19 04:24:22;;;;;;;15.37;7.90;;;17.50;99.90;;;;;;5010809;28;20480;-73
2021/08/19 04:27:08;;;;;;;9.40;8.40;;;17.50;99.90;;;;;;5004843;28;20491;-74
2021/08/19 04:29:55;;;;;;;9.30;7.90;;;17.40;99.90;;;;;;5003822;28;20994;-73
2021/08/19 04:32:41;;;;;;;10.17;8.50;;;17.40;99.90;;;;;;5010703;28;20458;-73
2021/08/19 04:35:31;;;;;;;8.67;7.83;;;17.40;99.90;;;;;;5011448;28;20836;-74
2021/08/19 04:38:17;;;;;;;8.37;7.43;;;17.40;99.90;;;;;;5006564;28;20422;-72
2021/08/19 04:41:02;;;;;;;14.13;8.27;;;17.40;99.90;;;;;;5010549;28;20448;-73
2021/08/19 04:43:48;;;;;;;9.73;7.23;;;17.40;99.90;;;;;;5012183;28;20536;-73
2021/08/19 04:46:35;;;;;;;11.33;8.50;;;17.30;99.90;;;;;;5014341;28;20458;-73
2021/08/19 04:49:21;;;;;;;11.80;8.10;;;17.20;99.90;;;;;;5014165;28;20468;-73
2021/08/19 04:52:07;;;;;;;10.60;8.67;;;17.30;99.90;;;;;;5009343;28;20445;-72
2021/08/19 04:54:53;;;;;;;9.00;7.82;;;17.30;99.90;;;;;;5013410;28;20791;-73
2021/08/19 04:57:38;;;;;;;7.77;6.40;;;17.40;99.90;;;;;;5014328;28;20319;-73
2021/08/19 05:00:24;;;;;;;9.73;7.43;;;17.40;99.90;;;;;;5014024;28;20515;-73
2021/08/19 05:03:11;;;;;;;12.27;7.97;;;17.30;99.90;;;;;;5009312;28;20439;-73
2021/08/19 05:05:57;;;;;;;9.50;8.00;;;17.30;99.90;;;;;;5013473;28;20438;-73
2021/08/19 05:08:42;;;;;;;11.37;7.70;;;17.30;99.90;;;;;;5012341;28;20450;-73
2021/08/19 05:11:28;;;;;;;9.40;7.00;;;17.40;99.90;;;;;;5013681;28;20914;-74
2021/08/19 05:14:14;;;;;;;9.70;7.50;;;17.40;99.90;;;;;;5014875;28;20509;-74
2021/08/19 05:16:59;;;;;;;8.27;6.27;;;17.40;99.90;;;;;;5014072;28;20445;-72
2021/08/19 05:19:46;;;;;;;7.87;6.87;;;17.40;99.90;;;;;;5013617;28;20497;-73
2021/08/19 05:22:32;;;;;;;8.17;7.17;;;17.40;99.90;;;;;;5013391;28;20435;-74
2021/08/19 05:25:18;;;;;;;8.43;7.53;;;17.40;99.90;;;;;;5012585;28;20804;-74
2021/08/19 05:28:04;;;;;;;12.10;6.37;;;17.30;99.90;;;;;;5014541;28;20530;-73
2021/08/19 05:30:50;;;;;;;8.52;7.07;;;17.30;99.90;;;;;;5011002;28;20493;-73
2021/08/19 05:33:36;;;;;;;8.95;7.20;;;17.30;99.90;;;;;;5010757;28;20443;-74
2021/08/19 05:36:23;;;;;;;6.70;6.00;;;17.30;99.90;;;;;;5013166;28;20342;-74
2021/08/19 05:39:09;;;;;;;8.17;6.27;;;17.30;99.90;;;;;;5008613;28;20397;-73
2021/08/19 05:41:54;;;;;;;8.13;6.10;;;17.30;99.90;;;;;;5008540;28;20628;-73
2021/08/19 05:44:40;;;;;;;7.07;6.37;;;17.30;99.90;;;;;;5013937;28;20493;-73
2021/08/19 05:47:25;;;;;;;7.30;6.60;;;17.40;99.90;;;;;;5013596;28;21022;-73
2021/08/19 05:50:11;;;;;;;15.73;7.17;;;17.40;99.90;;;;;;5013497;28;20824;-74
2021/08/19 05:52:58;;;;;;;7.90;5.60;;;17.40;99.90;;;;;;5013999;28;20415;-73
2021/08/19 05:55:44;;;;;;;6.30;5.57;;;17.40;99.90;;;;;;5012409;28;20450;-74
2021/08/19 05:58:30;;;;;;;6.20;5.47;;;17.40;99.90;;;;;;5013991;28;20544;-73
2021/08/19 06:01:16;;;;;;;8.80;6.00;;;17.50;99.90;;;;;;5011663;28;20466;-73
2021/08/19 06:04:02;;;;;;;8.17;6.17;;;17.30;99.90;;;;;;5011548;28;20890;-74
2021/08/19 06:06:47;;;;;;;12.43;5.90;;;17.30;99.90;;;;;;5013713;28;20429;-73
2021/08/19 06:09:35;;;;;;;9.07;5.50;;;17.40;99.90;;;;;;5016426;28;20432;-74
2021/08/19 06:12:21;;;;;;;7.32;5.55;;;17.40;99.90;;;;;;5011710;28;20446;-74
2021/08/19 06:15:08;;;;;;;6.50;5.47;;;17.40;99.90;;;;;;5008112;28;20203;-74
2021/08/19 06:17:53;;;;;;;6.57;5.53;;;17.50;99.90;;;;;;5012435;28;20478;-74
2021/08/19 06:20:39;;;;;;;6.33;5.20;;;17.50;99.90;;;;;;5011503;28;20969;-74
2021/08/19 06:23:25;;;;;;;5.60;5.10;;;17.50;99.90;;;;;;5013040;28;20963;-74
2021/08/19 06:26:12;;;;;;;7.50;5.77;;;17.50;99.90;;;;;;5013291;28;20421;-74
2021/08/19 06:28:58;;;;;;;8.63;5.63;;;17.50;99.90;;;;;;5011373;28;20587;-74
2021/08/19 06:31:44;;;;;;;7.40;6.17;;;17.50;99.90;;;;;;5013422;28;20572;-74
2021/08/19 06:34:29;;;;;;;5.90;4.93;;;17.60;99.90;;;;;;5012300;28;20469;-74
2021/08/19 06:37:15;;;;;;;8.33;6.40;;;17.60;99.90;;;;;;5011834;28;20447;-74
2021/08/19 06:40:01;;;;;;;6.87;5.47;;;17.60;99.90;;;;;;5010650;28;20450;-74
2021/08/19 06:42:48;;;;;;;8.30;6.17;;;17.60;99.90;;;;;;5010796;28;20473;-74
2021/08/19 06:45:34;;;;;;;7.57;5.13;;;17.60;99.90;;;;;;5012910;28;20505;-73
2021/08/19 06:48:19;;;;;;;7.65;5.65;;;17.60;99.90;;;;;;5009227;28;20991;-73
2021/08/19 06:51:05;;;;;;;8.70;5.65;;;17.60;99.90;;;;;;5009370;28;20450;-73
2021/08/19 06:53:50;;;;;;;6.40;5.30;;;17.60;99.90;;;;;;5011712;28;20199;-73
2021/08/19 06:56:36;;;;;;;5.73;5.20;;;17.60;99.90;;;;;;5008700;28;20595;-73
2021/08/19 06:59:23;;;;;;;7.93;5.63;;;17.70;99.90;;;;;;5010054;28;20513;-73
2021/08/19 07:02:09;;;;;;;7.07;6.37;;;17.70;99.90;;;;;;5009667;28;21076;-73
2021/08/19 07:04:54;;;;;;;7.20;6.10;;;17.60;99.90;;;;;;5011621;28;20448;-73
2021/08/19 07:07:40;;;;;;;7.07;5.90;;;17.70;99.90;;;;;;5012010;28;20563;-73
2021/08/19 07:10:26;;;;;;;7.17;6.47;;;17.70;99.90;;;;;;5008699;28;20823;-73
2021/08/19 07:13:13;;;;;;;5.53;5.03;;;17.80;99.90;;;;;;5011722;28;21035;-73
2021/08/19 07:15:59;;;;;;;6.73;6.03;;;17.90;99.90;;;;;;5010646;28;20520;-73
2021/08/19 07:18:45;;;;;;;6.37;5.77;;;17.90;99.90;;;;;;5009208;28;20454;-73
2021/08/19 07:21:31;;;;;;;6.90;6.20;;;17.90;99.90;;;;;;5011343;28;20454;-73
2021/08/19 07:24:16;;;;;;;5.83;5.33;;;18.00;99.90;;;;;;5004116;28;20548;-73
2021/08/19 07:27:02;;;;;;;5.80;5.30;;;17.90;99.90;;;;;;5005951;28;21021;-73
2021/08/19 07:29:48;;;;;;;8.63;5.88;;;17.80;99.90;;;;;;5001551;28;20562;-73
2021/08/19 07:32:35;;;;;;;7.37;6.50;;;17.90;99.90;;;;;;5007136;28;20210;-73
2021/08/19 07:35:21;;;;;;;7.13;6.43;;;17.90;99.90;;;;;;5009423;28;20532;-73
2021/08/19 07:38:07;;;;;;;6.03;5.40;;;17.90;99.90;;;;;;5010304;28;21075;-73
2021/08/19 07:40:53;;;;;;;5.87;5.27;;;17.80;99.90;;;;;;5006279;28;20475;-73
2021/08/19 07:43:38;;;;;;;5.93;5.33;;;17.90;99.90;;;;;;5007025;28;20537;-73
2021/08/19 07:46:24;;;;;;;6.57;5.97;;;17.90;99.90;;;;;;5008296;28;20463;-72
2021/08/19 07:49:13;;;;;;;8.77;6.20;;;17.80;99.90;;;;;;5004380;28;20424;-73
2021/08/19 07:51:59;;;;;;;7.20;6.03;;;17.80;99.90;;;;;;5041712;22;20500;-72
2021/08/19 07:54:44;;;;;;;8.50;6.00;;;17.80;99.90;;;;;;5031333;28;20446;-72
2021/08/19 07:57:40;;;;;;;7.50;6.40;;;17.80;99.90;;;;;;5026954;28;20421;-72
2021/08/19 08:00:28;;;;;;;10.40;6.03;;;17.90;99.90;;;;;;5024303;28;20439;-72
2021/08/19 08:03:14;;;;;;;8.48;5.07;;;17.90;99.90;;;;;;5031202;28;20422;-72
2021/08/19 08:06:01;;;;;;;11.73;6.10;;;18.00;99.90;;;;;;5028910;28;20202;-73
2021/08/19 08:08:47;;;;;;;6.60;5.00;;;18.10;99.90;;;;;;5027000;28;20523;-72
2021/08/19 08:11:32;;;;;;;6.20;5.30;;;18.20;99.90;;;;;;5022236;28;20446;-72
2021/08/19 08:14:18;;;;;;;7.10;5.10;;;18.20;99.90;;;;;;5031121;28;20420;-72
2021/08/19 08:17:04;;;;;;;7.40;5.27;;;18.20;99.90;;;;;;5030296;28;20910;-72
2021/08/19 08:19:50;;;;;;;6.47;4.70;;;18.20;99.90;;;;;;5032474;28;20967;-72
2021/08/19 08:22:40;;;;;;;6.60;5.40;;;18.10;99.90;;;;;;5037960;28;20438;-72
2021/08/19 08:25:26;;;;;;;6.40;4.40;;;18.10;99.90;;;;;;5026602;28;20435;-73
2021/08/19 08:28:13;;;;;;;7.43;4.70;;;18.10;99.90;;;;;;5034534;28;20556;-72
2021/08/19 08:31:02;;;;;;;5.30;3.90;;;18.00;99.90;;;;;;5034522;28;20525;-72
2021/08/19 08:33:47;;;;;;;14.30;5.30;;;18.10;99.90;;;;;;5015340;28;20412;-72
2021/08/19 08:36:33;;;;;;;6.63;4.70;;;18.20;99.90;;;;;;5029134;28;20617;-73
2021/08/19 08:39:20;;;;;;;4.50;4.10;;;18.10;99.90;;;;;;5033875;28;20433;-73
2021/08/19 08:42:09;;;;;;;5.43;4.38;;;18.10;99.90;;;;;;5031237;28;20495;-72
2021/08/19 08:44:55;;;;;;;7.03;4.63;;;18.10;99.90;;;;;;5027206;28;20444;-73
2021/08/19 08:47:41;;;;;;;5.57;4.37;;;18.10;99.90;;;;;;5032522;28;20342;-73
2021/08/19 08:50:28;;;;;;;6.07;5.00;;;18.30;99.90;;;;;;5034442;28;20823;-73
2021/08/19 08:53:16;;;;;;;9.67;5.30;;;18.40;99.90;;;;;;5033451;28;20485;-73
2021/08/19 08:56:04;;;;;;;5.20;3.93;;;18.50;99.90;;;;;;5030248;28;20949;-73
2021/08/19 08:58:50;;;;;;;7.47;4.10;;;18.40;99.90;;;;;;5034203;28;20421;-73
2021/08/19 09:01:36;;;;;;;7.50;4.63;;;18.20;99.90;;;;;;5034611;28;20431;-72
2021/08/19 09:04:22;;;;;;;5.00;4.50;;;18.20;99.90;;;;;;5032677;28;20503;-72
2021/08/19 09:07:08;;;;;;;5.30;4.63;;;18.20;99.90;;;;;;5032590;28;20912;-73
2021/08/19 09:09:55;;;;;;;9.43;5.00;;;18.30;99.90;;;;;;5035258;28;21013;-72
2021/08/19 09:12:42;;;;;;;7.00;4.90;;;18.30;99.90;;;;;;5034331;28;20409;-72
2021/08/19 09:15:28;;;;;;;5.70;5.07;;;18.30;99.90;;;;;;5033731;28;20448;-73
2021/08/19 09:18:29;;;;;;;7.40;4.70;;;18.40;99.90;;;;;;5025759;28;20506;-73
2021/08/19 09:21:21;;;;;;;5.03;4.20;;;18.60;99.90;;;;;;5030612;28;20453;-74
2021/08/19 09:24:13;;;;;;;7.53;5.73;;;18.70;99.90;;;;;;5032346;28;20219;-74
2021/08/19 09:27:10;;;;;;;5.53;4.53;;;18.70;99.90;;;;;;5033994;28;20995;-74
2021/08/19 09:30:02;;;;;;;5.30;4.80;;;18.80;99.90;;;;;;5026227;28;20427;-75
2021/08/19 09:32:48;;;;;;;7.60;5.07;;;18.90;99.90;;;;;;5033831;28;20421;-74
2021/08/19 09:35:34;;;;;;;6.17;4.83;;;18.90;99.90;;;;;;5028852;28;21054;-76
2021/08/19 09:38:21;;;;;;;6.33;4.10;;;18.90;99.90;;;;;;5022247;28;20860;-74
2021/08/19 09:41:11;;;;;;;7.33;4.30;;;18.80;99.90;;;;;;5030915;28;20477;-74
2021/08/19 09:43:57;;;;;;;6.90;5.20;;;18.90;99.90;;;;;;5033779;28;20418;-73
2021/08/19 09:46:44;;;;;;;5.53;4.67;;;18.90;99.90;;;;;;5033564;28;20562;-73
2021/08/19 09:49:34;;;;;;;6.67;4.70;;;19.00;99.90;;;;;;5026984;28;20473;-73
2021/08/19 09:52:22;;;;;;;5.75;4.43;;;19.00;99.90;;;;;;5029047;28;20769;-74
2021/08/19 09:55:22;;;;;;;5.83;4.77;;;19.10;99.90;;;;;;5021274;28;20210;-73
2021/08/19 09:58:07;;;;;;;8.90;4.50;;;19.10;99.90;;;;;;5024847;28;20453;-72
2021/08/19 10:00:54;;;;;;;4.53;4.00;;;19.20;99.90;;;;;;5027907;28;20825;-73
2021/08/19 10:03:41;;;;;;;5.00;4.13;;;19.20;99.90;;;;;;5031907;28;20465;-73
2021/08/19 10:06:26;;;;;;;9.00;5.57;;;19.20;99.90;;;;;;5026659;28;20998;-73
2021/08/19 10:09:13;;;;;;;9.27;5.40;;;19.30;99.90;;;;;;5031149;28;20532;-73
2021/08/19 10:12:00;;;;;;;6.87;6.03;;;19.40;99.90;;;;;;5024853;28;20474;-73
2021/08/19 10:14:46;;;;;;;8.70;5.40;;;19.40;99.90;;;;;;5031576;28;20933;-73
2021/08/19 10:17:32;;;;;;;5.20;3.80;;;19.40;99.90;;;;;;5025518;28;20453;-73
2021/08/19 10:20:23;;;;;;;7.90;4.87;;;19.40;99.90;;;;;;5019527;28;20545;-73
2021/08/19 10:23:11;;;;;;;8.03;4.90;;;19.60;99.90;;;;;;5026851;28;20926;-73
2021/08/19 10:26:05;;;;;;;8.50;4.87;;;19.70;99.90;;;;;;5021033;28;20549;-73
2021/08/19 10:28:54;;;;;;;8.27;6.32;;;19.70;99.90;;;;;;5030462;28;20456;-73
2021/08/19 10:31:43;;;;;;;9.38;6.10;;;19.50;99.90;;;;;;5030731;28;20444;-74
2021/08/19 10:35:00;;;;;;;10.37;5.70;;;19.40;99.90;;;;;;5030301;28;20366;-76
2021/08/19 10:38:04;;;;;;;7.83;5.27;;;19.40;99.90;;;;;;4977380;28;20458;-74
2021/08/19 10:40:49;;;;;;;7.50;5.77;;;19.30;99.90;;;;;;5031180;28;20497;-74
2021/08/19 10:43:38;;;;;;;6.97;6.23;;;19.30;99.90;;;;;;5023025;28;20459;-73
2021/08/19 10:46:38;;;;;;;7.30;6.50;;;19.30;99.90;;;;;;5022895;28;20477;-73
2021/08/19 10:49:36;;;;;;;7.20;5.37;;;19.30;99.90;;;;;;5026747;28;20660;-73
2021/08/19 10:52:29;;;;;;;6.50;5.20;;;19.50;99.90;;;;;;5031231;28;20832;-73
2021/08/19 10:55:20;;;;;;;7.57;5.67;;;19.70;99.90;;;;;;5026560;28;20466;-73
2021/08/19 10:58:22;;;;;;;10.13;8.30;;;19.80;99.90;;;;;;5025855;28;20455;-74
2021/08/19 11:01:26;;;;;;;10.10;5.70;;;19.80;99.90;;;;;;5026252;28;20515;-75
2021/08/19 11:04:43;;;;;;;7.67;5.20;;;19.80;99.90;;;;;;5025740;28;20565;-72
2021/08/19 11:07:51;;;;;;;8.10;6.53;;;19.70;99.90;;;;;;5031657;28;20423;-75
2021/08/19 11:10:39;;;;;;;7.77;5.30;;;19.60;99.90;;;;;;5028905;28;20466;-74
2021/08/19 11:13:28;;;;;;;8.80;6.57;;;19.60;99.90;;;;;;5029564;28;20466;-74
2021/08/19 11:16:15;;;;;;;8.90;5.50;;;19.60;99.90;;;;;;5026162;28;20414;-74
2021/08/19 11:19:15;;;;;;;7.10;5.13;;;19.60;99.90;;;;;;5030877;28;20513;-75
2021/08/19 11:22:02;;;;;;;8.97;6.30;;;19.50;99.90;;;;;;5024503;28;20462;-74
2021/08/19 11:24:48;;;;;;;7.20;5.80;;;19.50;99.90;;;;;;5031053;28;20473;-74
2021/08/19 11:27:35;;;;;;;8.70;5.80;;;19.50;99.90;;;;;;5028589;28;20509;-73
2021/08/19 11:30:31;;;;;;;9.93;6.47;;;19.50;99.90;;;;;;5024839;28;20481;-74
2021/08/19 11:33:18;;;;;;;8.03;6.70;;;19.40;99.90;;;;;;5028970;28;20625;-73
2021/08/19 11:36:04;;;;;;;8.33;6.80;;;19.50;99.90;;;;;;5022437;28;20935;-76
2021/08/19 11:38:56;;;;;;;8.60;6.93;;;19.60;99.90;;;;;;5030882;28;20450;-74
2021/08/19 11:41:41;;;;;;;7.93;6.70;;;19.60;99.90;;;;;;5028636;28;20774;-73
2021/08/19 11:44:29;;;;;;;7.57;6.63;;;19.60;99.90;;;;;;5024087;28;20448;-76
2021/08/19 11:47:21;;;;;;;6.63;5.93;;;19.60;99.90;;;;;;5026650;28;20449;-73
2021/08/19 11:50:07;;;;;;;7.60;5.63;;;19.70;99.90;;;;;;5031217;28;20500;-74
2021/08/19 11:53:01;;;;;;;7.47;6.43;;;19.70;99.90;;;;;;5010775;28;20793;-73
2021/08/19 11:55:46;;;;;;;9.13;5.80;;;19.80;99.90;;;;;;5011173;28;20411;-74
2021/08/19 11:58:32;;;;;;;9.77;6.67;;;19.80;99.90;;;;;;5011548;28;20558;-72
2021/08/19 12:01:25;;;;;;;6.43;5.70;;;19.90;99.90;;;;;;5011425;28;20444;-72
2021/08/19 12:04:11;;;;;;;7.40;6.40;;;19.90;99.90;;;;;;5027182;28;20393;-72
2021/08/19 12:06:57;;;;;;;9.70;6.20;;;19.90;99.90;;;;;;5031160;28;20477;-72
2021/08/19 12:09:43;;;;;;;7.18;5.93;;;20.00;99.90;;;;;;5034340;28;20423;-72
2021/08/19 12:12:35;;;;;;;9.43;4.90;;;20.10;99.90;;;;;;5020153;28;20798;-72
2021/08/19 12:15:22;;;;;;;8.60;4.77;;;20.40;99.90;;;;;;5023468;28;20456;-72
2021/08/19 12:18:09;;;;;;;7.30;4.40;;;20.40;99.90;;;;;;5028135;28;20481;-72
2021/08/19 12:21:14;;;;;;;4.93;4.20;;;20.50;99.90;;;;;;5029602;28;20458;-72
2021/08/19 12:24:14;;;;;;;4.90;4.40;;;20.50;99.90;;;;;;5023376;28;20463;-72
2021/08/19 12:27:05;;;;;;;5.23;4.40;;;20.40;99.90;;;;;;5029742;28;20462;-72
2021/08/19 12:29:54;;;;;;;6.50;4.43;;;20.40;99.90;;;;;;5022303;28;20435;-72
2021/08/19 12:32:40;;;;;;;5.93;4.40;;;20.30;99.90;;;;;;5027728;28;20453;-72
2021/08/19 12:35:26;;;;;;;5.43;4.60;;;20.20;99.90;;;;;;5028977;28;20529;-72
2021/08/19 12:38:23;;;;;;;7.13;4.97;;;20.30;99.90;;;;;;5029658;28;20454;-72
2021/08/19 12:41:17;;;;;;;6.43;4.83;;;20.30;99.90;;;;;;5030428;28;20470;-72
2021/08/19 12:44:07;;;;;;;5.40;4.03;;;20.30;99.90;;;;;;5028985;28;20531;-72
2021/08/19 12:46:57;;;;;;;5.33;4.23;;;20.40;99.90;;;;;;5027120;28;20432;-72
2021/08/19 12:49:43;;;;;;;4.70;3.80;;;20.50;99.90;;;;;;5029332;28;20826;-72
2021/08/19 12:52:30;;;;;;;6.13;5.33;;;20.70;99.90;;;;;;5026811;28;20455;-72
2021/08/19 12:55:16;;;;;;;5.17;4.37;;;20.90;99.90;;;;;;5029841;28;20804;-72
2021/08/19 12:58:02;;;;;;;5.73;4.60;;;20.90;99.90;;;;;;5021155;28;20888;-72
2021/08/19 13:00:48;;;;;;;6.03;4.80;;;21.10;99.90;;;;;;5027942;28;20471;-72
2021/08/19 13:03:34;;;;;;;7.70;5.20;;;21.30;99.90;;;;;;5027130;28;20937;-72
2021/08/19 13:06:20;;;;;;;6.27;5.07;;;21.40;99.90;;;;;;5023939;28;20506;-72
2021/08/19 13:09:07;;;;;;;6.77;5.70;;;21.60;99.90;;;;;;5016180;28;20552;-73
2021/08/19 13:11:53;;;;;;;6.35;4.55;;;21.80;99.90;;;;;;5031210;28;20795;-73
2021/08/19 13:14:39;;;;;;;6.75;4.70;;;22.00;99.90;;;;;;5032981;28;20417;-73
2021/08/19 13:17:25;;;;;;;6.30;4.97;;;21.90;99.90;;;;;;5032407;28;20287;-73
2021/08/19 13:20:12;;;;;;;5.30;4.07;;;22.10;99.90;;;;;;5021159;28;20487;-73
2021/08/19 13:22:59;;;;;;;10.60;4.27;;;22.10;99.90;;;;;;5028393;28;20443;-73
2021/08/19 13:25:46;;;;;;;8.50;4.57;;;22.00;99.90;;;;;;5028536;28;20448;-73
2021/08/19 13:28:32;;;;;;;6.83;4.60;;;21.90;99.90;;;;;;5028794;28;20429;-73
2021/08/19 13:31:18;;;;;;;5.13;4.57;;;21.70;99.90;;;;;;5027757;28;20983;-72
2021/08/19 13:34:03;;;;;;;6.23;4.63;;;21.50;99.90;;;;;;5024225;28;20950;-72
2021/08/19 13:36:49;;;;;;;6.10;5.00;;;21.30;99.90;;;;;;5032194;28;20838;-73
2021/08/19 13:39:36;;;;;;;6.93;4.95;;;21.20;99.90;;;;;;5036024;28;20518;-74
2021/08/19 13:42:23;;;;;;;6.80;5.20;;;21.10;99.90;;;;;;5032162;28;20207;-71
2021/08/19 13:45:10;;;;;;;8.05;4.80;;;21.10;99.90;;;;;;5022420;28;20465;-72
2021/08/19 13:47:56;;;;;;;6.07;5.10;;;21.00;99.90;;;;;;5027778;28;20693;-73
2021/08/19 13:50:41;;;;;;;5.90;5.00;;;21.00;99.90;;;;;;5031069;28;20461;-72
2021/08/19 13:53:27;;;;;;;9.43;5.93;;;21.00;99.90;;;;;;5043969;22;21337;-74
2021/08/19 13:56:12;;;;;;;7.43;4.90;;;20.80;99.90;;;;;;5026218;28;20540;-74
2021/08/19 13:59:00;;;;;;;7.90;5.83;;;20.70;99.90;;;;;;5030980;28;20485;-75
2021/08/19 14:01:46;;;;;;;6.70;5.00;;;20.70;99.90;;;;;;5032385;28;20470;-75
2021/08/19 14:04:31;;;;;;;5.50;4.13;;;20.60;99.90;;;;;;5027393;28;20458;-75
2021/08/19 14:07:17;;;;;;;5.60;4.60;;;20.60;99.90;;;;;;5023478;28;20459;-74
2021/08/19 14:10:02;;;;;;;5.50;4.43;;;20.60;99.90;;;;;;5035925;28;20462;-74
2021/08/19 14:12:49;;;;;;;6.18;4.95;;;20.50;99.90;;;;;;5024837;28;20503;-74
2021/08/19 14:15:36;;;;;;;6.10;4.97;;;20.60;99.90;;;;;;5030809;28;20569;-75
2021/08/19 14:18:22;;;;;;;6.33;4.50;;;20.60;99.90;;;;;;5031885;28;20459;-74
2021/08/19 14:21:08;;;;;;;6.67;4.97;;;20.60;99.90;;;;;;5030290;28;20498;-74
2021/08/19 14:23:54;;;;;;;5.83;5.07;;;20.60;99.90;;;;;;5021606;28;20434;-74
2021/08/19 14:26:40;;;;;;;5.93;4.77;;;20.60;99.90;;;;;;5032409;28;20474;-74
2021/08/19 14:29:26;;;;;;;7.30;5.30;;;20.60;99.90;;;;;;5029649;28;20432;-74